createdAt,value
2023-03-20T00:03:32.597Z,14.90
2023-03-20T00:07:34.746Z,23.00
2023-03-20T00:11:44.058Z,21.73
2023-03-20T00:15:46.505Z,26.30
2023-03-20T00:19:49.171Z,24.45
2023-03-20T00:23:51.258Z,17.67
2023-03-20T00:27:53.477Z,21.27
2023-03-20T00:31:56.109Z,28.38
2023-03-20T00:35:59.378Z,26.17
2023-03-20T00:40:01.536Z,31.75
2023-03-20T00:44:26.424Z,34.08
2023-03-20T00:48:28.621Z,32.63
2023-03-20T00:52:31.379Z,22.65
2023-03-20T00:56:36.648Z,27.40
2023-03-20T01:00:38.795Z,35.10
2023-03-20T01:04:43.770Z,33.38
2023-03-20T01:08:48.896Z,30.92
2023-03-20T01:12:51.027Z,36.92
2023-03-20T01:16:53.237Z,34.50
2023-03-20T01:20:55.454Z,44.28
2023-03-20T01:24:57.637Z,37.38
2023-03-20T01:28:59.795Z,46.95
2023-03-20T01:33:12.249Z,41.25
2023-03-20T01:37:18.951Z,53.28
2023-03-20T01:41:23.338Z,46.42
2023-03-20T01:45:36.332Z,61.10
2023-03-20T01:50:00.967Z,92.68
2023-03-20T01:54:09.037Z,74.40
2023-03-20T01:58:26.107Z,86.55
2023-03-20T02:02:33.886Z,58.17
2023-03-20T02:06:44.338Z,53.42
2023-03-20T02:11:01.796Z,42.40
2023-03-20T02:15:08.093Z,80.28
2023-03-20T02:19:40.974Z,89.25
2023-03-20T02:23:58.499Z,143.68
2023-03-20T02:28:32.339Z,60.80
2023-03-20T02:33:12.455Z,87.25
2023-03-20T02:37:44.619Z,41.70
2023-03-20T02:42:13.047Z,39.00
2023-03-20T02:46:18.324Z,38.45
2023-03-20T02:50:31.979Z,29.58
2023-03-20T02:54:53.542Z,28.60
2023-03-20T02:58:55.718Z,40.10
2023-03-20T03:03:13.244Z,22.70
2023-03-20T03:07:19.783Z,27.30
2023-03-20T03:11:21.926Z,23.00
2023-03-20T03:15:39.184Z,38.17
2023-03-20T03:19:46.693Z,40.17
2023-03-20T03:23:49.902Z,16.45
2023-03-20T03:28:11.751Z,31.23
2023-03-20T03:33:17.350Z,21.85
2023-03-20T03:37:43.258Z,27.90
2023-03-20T03:42:23.024Z,21.30
2023-03-20T03:46:52.687Z,39.55
2023-03-20T03:51:00.588Z,24.45
2023-03-20T03:55:08.943Z,40.53
2023-03-20T03:59:33.639Z,26.60
2023-03-20T04:03:40.333Z,20.70
2023-03-20T04:07:46.384Z,19.33
2023-03-20T04:11:52.204Z,17.25
2023-03-20T04:15:54.958Z,20.73
2023-03-20T04:19:57.995Z,18.45
2023-03-20T04:24:00.598Z,18.95
2023-03-20T04:28:02.755Z,26.25
2023-03-20T04:32:14.657Z,15.95
2023-03-20T04:36:49.189Z,19.47
2023-03-20T04:40:53.071Z,24.98
2023-03-20T04:44:55.764Z,15.75
2023-03-20T04:48:59.563Z,11.20
2023-03-20T04:53:05.084Z,19.00
2023-03-20T04:57:07.360Z,11.50
2023-03-20T05:01:10.755Z,11.90
2023-03-20T05:05:13.089Z,13.02
2023-03-20T05:09:16.940Z,13.75
2023-03-20T05:13:19.357Z,15.43
2023-03-20T05:17:51.873Z,15.73
2023-03-20T05:22:12.550Z,11.88
2023-03-20T05:26:33.340Z,12.50
2023-03-20T05:30:58.406Z,13.77
2023-03-20T05:39:34.037Z,7.60
2023-03-20T05:43:39.185Z,9.45
2023-03-20T05:48:07.334Z,6.80
2023-03-20T05:52:23.988Z,5.20
2023-03-20T05:56:41.477Z,6.38
2023-03-20T06:00:49.674Z,5.72
2023-03-20T06:05:11.779Z,6.72
2023-03-20T06:09:20.878Z,9.15
2023-03-20T06:13:23.849Z,7.75
2023-03-20T06:17:26.148Z,8.65
2023-03-20T06:21:35.163Z,4.78
2023-03-20T06:25:38.864Z,11.40
2023-03-20T06:29:42.434Z,7.60
2023-03-20T06:34:00.177Z,9.00
2023-03-20T06:38:02.797Z,2.35
2023-03-20T06:42:05.600Z,2.55
2023-03-20T06:46:08.154Z,6.00
2023-03-20T06:50:11.766Z,3.53
2023-03-20T06:54:14.406Z,3.95
2023-03-20T06:58:17.970Z,3.95
2023-03-20T07:02:24.431Z,4.05
2023-03-20T07:06:27.694Z,3.65
2023-03-20T07:10:30.104Z,2.85
2023-03-20T07:14:32.401Z,4.22
2023-03-20T07:18:40.552Z,6.80
2023-03-20T07:22:43.299Z,3.15
2023-03-20T07:26:53.868Z,3.78
2023-03-20T07:30:57.897Z,3.67
2023-03-20T07:35:01.770Z,2.27
2023-03-20T07:39:04.664Z,2.15
2023-03-20T07:43:08.081Z,2.13
2023-03-20T07:47:43.097Z,3.00
2023-03-20T07:51:46.441Z,2.25
2023-03-20T07:55:48.752Z,2.58
2023-03-20T07:59:50.982Z,3.20
2023-03-20T08:03:53.102Z,2.13
2023-03-20T08:07:55.687Z,2.40
2023-03-20T08:11:58.183Z,2.70
2023-03-20T08:16:00.619Z,3.30
2023-03-20T08:20:04.567Z,2.70
2023-03-20T08:24:07.123Z,2.60
2023-03-20T08:28:09.319Z,2.83
2023-03-20T08:32:11.434Z,3.38
2023-03-20T08:36:15.677Z,1.25
2023-03-20T08:44:19.915Z,1.60
2023-03-20T08:48:22.091Z,3.15
2023-03-20T08:52:24.223Z,2.30
2023-03-20T08:56:26.653Z,2.30
2023-03-20T09:00:28.897Z,1.67
2023-03-20T09:04:31.441Z,1.30
2023-03-20T09:08:33.636Z,2.28
2023-03-20T09:12:36.164Z,1.65
2023-03-20T09:16:38.470Z,2.20
2023-03-20T09:20:40.590Z,2.45
2023-03-20T09:24:42.724Z,1.30
2023-03-20T09:28:44.838Z,1.90
2023-03-20T09:32:47.092Z,2.05
2023-03-20T09:36:49.934Z,1.85
2023-03-20T09:41:22.629Z,1.95
2023-03-20T09:45:47.831Z,2.03
2023-03-20T09:50:11.970Z,2.40
2023-03-20T09:54:28.453Z,1.30
2023-03-20T09:58:34.367Z,1.85
2023-03-20T10:02:49.354Z,2.30
2023-03-20T10:06:51.625Z,1.58
2023-03-20T10:11:32.222Z,4.30
2023-03-20T10:16:04.488Z,1.92
2023-03-20T10:20:25.856Z,2.83
2023-03-20T10:25:03.601Z,2.67
2023-03-20T10:29:26.480Z,1.63
2023-03-20T10:34:09.560Z,1.60
2023-03-20T10:38:33.395Z,2.70
2023-03-20T10:42:51.602Z,2.13
2023-03-20T10:47:01.062Z,2.28
2023-03-20T10:51:15.188Z,3.03
2023-03-20T10:55:25.402Z,1.38
2023-03-20T10:59:52.381Z,3.08
2023-03-20T11:04:00.279Z,2.17
2023-03-20T11:08:14.183Z,2.08
2023-03-20T11:12:23.629Z,2.13
2023-03-20T11:16:37.326Z,1.38
2023-03-20T11:20:56.798Z,2.63
2023-03-20T11:25:03.189Z,1.65
2023-03-20T11:29:10.674Z,1.88
2023-03-20T11:33:16.954Z,1.77
2023-03-20T11:37:29.880Z,2.00
2023-03-20T11:41:33.568Z,1.73
2023-03-20T11:45:39.042Z,1.95
2023-03-20T11:49:56.009Z,3.25
2023-03-20T11:54:05.338Z,1.30
2023-03-20T11:58:17.563Z,2.08
2023-03-20T12:02:24.556Z,1.42
2023-03-20T12:06:36.560Z,2.40
2023-03-20T12:10:43.081Z,2.80
2023-03-20T12:14:55.006Z,2.10
2023-03-20T12:19:04.742Z,2.28
2023-03-20T12:23:10.772Z,1.70
2023-03-20T12:27:21.710Z,2.33
2023-03-20T12:31:40.876Z,2.78
2023-03-20T12:35:49.621Z,2.45
2023-03-20T12:39:59.458Z,1.90
2023-03-20T12:44:11.685Z,4.50
2023-03-20T12:48:46.738Z,5.25
2023-03-20T12:53:07.544Z,2.22
2023-03-20T12:57:28.452Z,3.92
2023-03-20T13:01:36.763Z,2.38
2023-03-20T13:06:09.639Z,3.25
2023-03-20T13:10:22.243Z,1.75
2023-03-20T13:14:31.226Z,1.40
2023-03-20T13:18:50.227Z,1.73
2023-03-20T13:23:27.923Z,2.72
2023-03-20T13:27:54.601Z,0.55
2023-03-20T13:32:28.478Z,1.15
2023-03-20T13:36:52.785Z,1.13
2023-03-20T13:41:06.731Z,0.30
2023-03-20T13:50:38.619Z,0.10
2023-03-20T13:55:18.749Z,0.98
2023-03-20T13:59:29.176Z,0.30
2023-03-20T14:03:36.566Z,0.60
2023-03-20T14:07:44.603Z,0.35
2023-03-20T14:11:46.886Z,0.30
2023-03-20T14:15:57.416Z,1.23
2023-03-20T14:20:12.710Z,0.38
2023-03-20T14:24:19.678Z,0.38
2023-03-20T14:28:22.156Z,0.20
2023-03-20T14:32:33.690Z,1.05
2023-03-20T14:36:59.844Z,0.50
2023-03-20T14:41:23.211Z,2.63
2023-03-20T14:45:47.498Z,0.57
2023-03-20T14:50:11.734Z,0.30
2023-03-20T14:54:22.980Z,0.47
2023-03-20T14:58:51.029Z,0.60
2023-03-20T15:03:07.935Z,0.35
2023-03-20T15:07:25.971Z,0.40
2023-03-20T15:11:29.061Z,0.40
2023-03-20T15:15:34.822Z,0.45
2023-03-20T15:19:40.138Z,0.70
2023-03-20T15:23:46.914Z,0.25
2023-03-20T15:27:50.410Z,0.50
2023-03-20T15:32:13.015Z,0.77
2023-03-20T15:36:24.887Z,0.22
2023-03-20T15:40:40.177Z,0.77
2023-03-20T15:44:52.339Z,0.70
2023-03-20T15:48:56.362Z,1.83
2023-03-20T15:52:58.770Z,3.90
2023-03-20T15:57:03.028Z,1.42
2023-03-20T16:01:08.175Z,1.30
2023-03-20T16:05:15.037Z,1.02
2023-03-20T16:09:18.090Z,0.60
2023-03-20T16:13:23.597Z,1.02
2023-03-20T16:17:26.808Z,0.32
2023-03-20T16:21:33.558Z,0.20
2023-03-20T16:25:37.474Z,0.47
2023-03-20T16:29:44.133Z,0.10
2023-03-20T16:33:47.262Z,0.17
2023-03-20T16:37:54.752Z,0.52
2023-03-20T16:42:04.590Z,0.45
2023-03-20T16:46:07.321Z,0.38
2023-03-20T16:50:21.154Z,0.40
2023-03-20T16:54:32.626Z,0.70
2023-03-20T16:58:41.488Z,0.20
2023-03-20T17:02:51.222Z,0.10
2023-03-20T17:06:55.996Z,0.43
2023-03-20T17:11:00.608Z,1.67
2023-03-20T17:15:05.000Z,0.30
2023-03-20T17:19:19.100Z,0.20
2023-03-20T17:23:22.965Z,1.17
2023-03-20T17:27:28.231Z,2.07
2023-03-20T17:31:30.593Z,2.65
2023-03-20T17:35:33.885Z,5.13
2023-03-20T17:39:36.228Z,1.85
2023-03-20T17:43:38.582Z,1.77
2023-03-20T17:47:42.698Z,2.95
2023-03-20T17:51:44.940Z,1.30
2023-03-20T17:55:47.532Z,2.20
2023-03-20T17:59:50.362Z,1.30
2023-03-20T18:03:52.781Z,2.65
2023-03-20T18:07:54.886Z,1.02
2023-03-20T18:11:57.357Z,4.88
2023-03-20T18:15:59.857Z,1.08
2023-03-20T18:20:02.406Z,0.88
2023-03-20T18:24:05.294Z,1.27
2023-03-20T18:28:15.539Z,1.92
2023-03-20T18:32:17.701Z,3.20
2023-03-20T18:36:26.481Z,3.95
2023-03-20T18:40:35.616Z,2.83
2023-03-20T18:44:37.951Z,1.40
2023-03-20T18:48:40.205Z,1.50
2023-03-20T18:52:42.443Z,1.58
2023-03-20T18:56:45.681Z,0.55
2023-03-20T19:00:47.910Z,0.70
2023-03-20T19:04:49.992Z,0.50
2023-03-20T19:08:52.859Z,0.77
2023-03-20T19:12:56.082Z,1.17
2023-03-20T19:16:58.331Z,0.90
2023-03-20T19:21:00.753Z,1.10
2023-03-20T19:25:04.530Z,1.83
2023-03-20T19:29:09.698Z,2.03
2023-03-20T19:33:11.976Z,2.05
2023-03-20T19:37:14.258Z,1.67
2023-03-20T19:41:16.608Z,1.33
2023-03-20T19:45:19.137Z,0.70
2023-03-20T19:49:30.220Z,0.45
2023-03-20T19:53:33.508Z,8.55
2023-03-20T19:57:35.922Z,11.00
2023-03-20T20:01:40.167Z,6.63
2023-03-20T20:05:42.924Z,2.40
2023-03-20T20:09:45.360Z,2.33
2023-03-20T20:18:10.613Z,3.40
2023-03-20T20:22:25.026Z,5.80
2023-03-20T20:26:31.050Z,2.65
2023-03-20T20:30:38.257Z,3.35
2023-03-20T20:39:04.183Z,3.88
2023-03-20T20:43:10.491Z,3.08
2023-03-20T20:47:14.114Z,2.25
2023-03-20T20:51:16.849Z,1.05
2023-03-20T20:55:23.517Z,0.50
2023-03-20T20:59:26.618Z,0.98
2023-03-20T21:03:29.479Z,0.30
2023-03-20T21:07:31.669Z,0.50
2023-03-20T21:11:34.127Z,3.30
2023-03-20T21:15:37.056Z,4.68
2023-03-20T21:19:41.526Z,3.80
2023-03-20T21:23:44.070Z,6.18
2023-03-20T21:27:46.538Z,6.40
2023-03-20T21:31:49.344Z,7.72
2023-03-20T21:35:53.414Z,5.55
2023-03-20T21:39:56.974Z,3.35
2023-03-20T21:44:01.248Z,3.58
2023-03-20T21:48:42.429Z,7.85
2023-03-20T21:57:28.924Z,6.88
2023-03-20T22:01:52.421Z,4.68
2023-03-20T22:28:32.399Z,3.67
2023-03-20T22:37:11.137Z,5.75
2023-03-20T22:45:04.332Z,3.42
2023-03-20T22:49:07.485Z,2.30
2023-03-20T22:53:09.738Z,2.72
2023-03-20T22:57:11.915Z,3.17
2023-03-20T23:01:14.097Z,2.95
2023-03-20T23:05:39.322Z,2.65
2023-03-20T23:10:01.188Z,1.92
2023-03-20T23:14:03.805Z,2.22
2023-03-20T23:18:08.198Z,3.60
2023-03-20T23:22:10.494Z,2.63
2023-03-20T23:32:26.351Z,4.05
2023-03-20T23:36:36.371Z,1.67
2023-03-20T23:40:38.965Z,6.60
2023-03-20T23:44:50.039Z,3.92
2023-03-20T23:48:57.699Z,5.82
2023-03-20T23:53:13.096Z,3.45
2023-03-20T23:57:15.847Z,4.13
